Time;durP1;ratioP1;P1;durP2;ratioP2;P2;SDS_P1;SDS_P2;PMS_P1;PMS_P2;Temp;Humidity;BMP_temperature;BMP_pressure;BME280_temperature;BME280_humidity;BME280_pressure;Samples;Min_cycle;Max_cycle;Signal;HPM_P1;HPM_P2
2022/04/01 00:00:54;;;;;;;12.97;11.67;;;1.70;99.90;;;;;;5039645;28;20473;-59
2022/04/01 00:03:23;;;;;;;12.80;11.60;;;1.70;99.90;;;;;;5039472;28;20497;-58
2022/04/01 00:05:53;;;;;;;14.03;11.30;;;1.70;99.90;;;;;;5040286;28;20828;-60
2022/04/01 00:08:29;;;;;;;13.53;11.77;;;1.70;99.90;;;;;;5038083;28;20575;-59
2022/04/01 00:11:03;;;;;;;13.97;12.57;;;1.70;99.90;;;;;;5019904;28;20526;-58
2022/04/01 00:13:48;;;;;;;13.63;12.23;;;1.80;99.90;;;;;;5020454;28;20465;-58
2022/04/01 00:16:23;;;;;;;14.47;13.10;;;1.60;99.90;;;;;;5020541;28;20467;-59
2022/04/01 00:18:53;;;;;;;13.63;12.30;;;1.70;99.90;;;;;;5021427;28;20491;-59
2022/04/01 00:21:30;;;;;;;13.87;12.47;;;1.70;99.90;;;;;;5040040;28;20468;-59
2022/04/01 00:24:03;;;;;;;14.47;12.33;;;1.60;99.90;;;;;;5039774;28;20463;-57
2022/04/01 00:26:30;;;;;;;13.93;12.50;;;1.60;99.90;;;;;;5039665;28;20470;-59
2022/04/01 00:28:59;;;;;;;14.20;12.80;;;1.60;99.90;;;;;;5039354;28;20463;-59
2022/04/01 00:31:30;;;;;;;15.27;13.73;;;1.50;99.90;;;;;;5020634;28;20541;-59
2022/04/01 00:36:41;;;;;;;14.77;13.17;;;1.60;99.90;;;;;;5019153;28;20438;-59
2022/04/01 00:39:08;;;;;;;17.10;14.40;;;1.50;99.90;;;;;;5019556;28;20530;-59
2022/04/01 00:41:37;;;;;;;14.50;13.10;;;1.60;99.90;;;;;;5034078;28;20555;-59
2022/04/01 00:44:18;;;;;;;16.37;12.97;;;1.60;99.90;;;;;;5038138;28;20476;-58
2022/04/01 00:46:55;;;;;;;14.97;13.37;;;1.60;99.90;;;;;;5019450;28;20545;-59
2022/04/01 00:49:26;;;;;;;14.73;12.03;;;1.50;99.90;;;;;;5019712;28;20486;-59
2022/04/01 00:51:58;;;;;;;16.83;14.17;;;1.50;99.90;;;;;;5029110;28;20804;-58
2022/04/01 00:54:35;;;;;;;14.57;12.63;;;1.50;99.90;;;;;;5018914;28;20463;-60
2022/04/01 00:57:10;;;;;;;13.53;12.00;;;1.50;99.90;;;;;;5018229;28;20464;-59
2022/04/01 00:59:38;;;;;;;13.87;12.13;;;1.50;99.90;;;;;;5019084;28;20588;-59
2022/04/01 01:02:09;;;;;;;16.23;12.83;;;1.50;99.90;;;;;;5031298;28;20470;-59
2022/04/01 01:04:37;;;;;;;14.17;12.37;;;1.50;99.90;;;;;;5038326;28;20896;-59
2022/04/01 01:07:07;;;;;;;13.13;11.80;;;1.50;99.90;;;;;;5038698;28;20467;-59
2022/04/01 01:09:37;;;;;;;15.93;13.23;;;1.50;99.90;;;;;;5038604;28;20491;-57
2022/04/01 01:12:07;;;;;;;13.63;12.23;;;1.50;99.90;;;;;;5029562;28;20891;-59
2022/04/01 01:14:40;;;;;;;14.07;12.53;;;1.50;99.90;;;;;;5018323;28;20551;-59
2022/04/01 01:17:12;;;;;;;16.03;13.40;;;1.50;99.90;;;;;;5036662;28;20557;-59
2022/04/01 01:19:41;;;;;;;18.00;13.50;;;1.50;99.90;;;;;;5038768;28;20492;-59
2022/04/01 01:22:12;;;;;;;15.97;12.90;;;1.40;99.90;;;;;;5032660;28;20520;-59
2022/04/01 01:24:43;;;;;;;14.60;13.07;;;1.40;99.90;;;;;;5018625;28;20489;-59
2022/04/01 01:27:13;;;;;;;13.70;12.30;;;1.40;99.90;;;;;;5018564;28;20468;-59
2022/04/01 01:29:42;;;;;;;14.73;13.23;;;1.30;99.90;;;;;;5018830;28;20750;-59
2022/04/01 01:32:16;;;;;;;12.47;11.17;;;1.40;99.90;;;;;;5020438;28;20824;-59
2022/04/01 01:34:43;;;;;;;12.03;10.90;;;1.30;99.90;;;;;;5038625;28;20952;-59
2022/04/01 01:37:11;;;;;;;12.70;11.40;;;1.20;99.90;;;;;;5036280;28;20525;-59
2022/04/01 01:39:45;;;;;;;13.10;11.90;;;1.30;99.90;;;;;;5018480;28;20866;-59
2022/04/01 01:42:22;;;;;;;14.80;12.53;;;1.30;99.90;;;;;;5019665;28;20560;-58
2022/04/01 01:44:51;;;;;;;12.70;11.40;;;1.30;99.90;;;;;;5018227;28;20500;-58
2022/04/01 01:47:20;;;;;;;13.20;11.90;;;1.30;99.90;;;;;;5018728;28;20557;-58
2022/04/01 01:55:14;;;;;;;12.50;11.30;;;1.20;99.90;;;;;;5017761;28;20719;-58
2022/04/01 01:57:44;;;;;;;14.20;12.70;;;1.30;99.90;;;;;;5017306;28;20907;-59
2022/04/01 02:00:11;;;;;;;12.00;10.83;;;1.20;99.90;;;;;;5035139;28;20487;-59
2022/04/01 02:02:39;;;;;;;14.27;12.87;;;1.30;99.90;;;;;;5037585;28;20527;-58
2022/04/01 02:05:16;;;;;;;11.80;10.60;;;1.30;99.90;;;;;;5037963;28;20468;-58
2022/04/01 02:07:47;;;;;;;13.50;12.20;;;1.30;99.90;;;;;;5038683;28;20517;-59
2022/04/01 02:10:15;;;;;;;12.70;11.40;;;1.20;99.90;;;;;;5022271;28;20784;-58
2022/04/01 02:12:46;;;;;;;12.50;11.30;;;1.20;99.90;;;;;;5017943;28;20469;-59
2022/04/01 02:15:13;;;;;;;17.27;10.90;;;1.20;99.90;;;;;;5017598;28;20520;-59
2022/04/01 02:17:40;;;;;;;11.33;9.93;;;1.10;99.90;;;;;;5018036;28;20815;-59
2022/04/01 02:20:11;;;;;;;11.43;10.40;;;1.10;99.90;;;;;;5027415;28;20491;-59
2022/04/01 02:22:44;;;;;;;11.83;9.70;;;1.10;99.90;;;;;;5037891;28;20463;-59
2022/04/01 02:25:14;;;;;;;11.43;10.23;;;1.00;99.90;;;;;;5037399;28;20462;-60
2022/04/01 02:27:44;;;;;;;12.50;11.17;;;1.00;99.90;;;;;;5037477;28;20528;-60
2022/04/01 02:30:12;;;;;;;11.13;9.93;;;1.00;99.90;;;;;;5030744;28;20452;-59
2022/04/01 02:32:39;;;;;;;9.80;8.80;;;1.00;99.90;;;;;;5017595;28;20891;-58
2022/04/01 02:35:10;;;;;;;12.30;9.90;;;0.90;99.90;;;;;;5018411;28;20542;-59
2022/04/01 02:37:39;;;;;;;11.00;9.83;;;1.00;99.90;;;;;;5018011;28;20446;-60
2022/04/01 02:40:11;;;;;;;10.83;9.77;;;1.00;99.90;;;;;;5019128;28;20545;-59
2022/04/01 02:42:38;;;;;;;11.00;9.90;;;0.80;99.90;;;;;;5037367;28;20463;-59
2022/04/01 02:45:08;;;;;;;9.80;8.80;;;0.90;99.90;;;;;;5036481;28;20463;-59
2022/04/01 02:47:35;;;;;;;10.70;9.70;;;0.90;99.90;;;;;;5037643;28;20548;-60
2022/04/01 02:50:07;;;;;;;12.90;9.37;;;0.80;99.90;;;;;;5037316;28;20464;-59
2022/04/01 02:52:34;;;;;;;9.87;8.70;;;0.80;99.90;;;;;;5018336;28;20755;-60
2022/04/01 02:55:06;;;;;;;13.50;9.47;;;0.80;99.90;;;;;;5020653;28;20465;-60
2022/04/01 02:57:34;;;;;;;11.13;9.87;;;0.80;99.90;;;;;;5036235;28;20473;-59
2022/04/01 03:00:09;;;;;;;9.90;8.60;;;0.80;99.90;;;;;;5036390;28;20582;-60
2022/04/01 03:02:37;;;;;;;9.50;8.50;;;0.80;99.90;;;;;;5036065;28;20444;-60
2022/04/01 03:05:12;;;;;;;11.57;8.30;;;0.80;99.90;;;;;;5040346;28;20473;-60
2022/04/01 03:07:39;;;;;;;10.17;8.90;;;0.90;99.90;;;;;;5041250;28;20463;-60
2022/04/01 03:10:11;;;;;;;13.30;8.73;;;0.90;99.90;;;;;;5040514;28;20516;-60
2022/04/01 03:12:41;;;;;;;11.67;10.60;;;0.90;99.90;;;;;;5039055;28;20492;-60
2022/04/01 03:15:09;;;;;;;9.37;8.40;;;0.80;99.90;;;;;;5041642;28;20464;-60
2022/04/01 03:17:37;;;;;;;9.33;8.40;;;0.80;99.90;;;;;;5040007;28;20464;-60
2022/04/01 03:20:11;;;;;;;10.73;8.23;;;0.70;99.90;;;;;;5041344;28;20548;-60
2022/04/01 03:22:38;;;;;;;9.10;8.23;;;0.70;99.90;;;;;;5033020;28;20913;-60
2022/04/01 03:25:15;;;;;;;9.27;8.27;;;0.80;99.90;;;;;;5020932;28;20464;-60
2022/04/01 03:27:51;;;;;;;11.23;7.97;;;0.80;99.90;;;;;;5021855;28;20477;-60
2022/04/01 03:30:19;;;;;;;9.13;8.23;;;0.80;99.90;;;;;;5022810;28;20452;-59
2022/04/01 03:32:50;;;;;;;11.50;9.27;;;0.80;99.90;;;;;;5027558;28;20476;-61
2022/04/01 03:35:19;;;;;;;11.20;9.83;;;0.80;99.90;;;;;;5043166;28;20471;-60
2022/04/01 03:37:49;;;;;;;9.37;8.47;;;0.80;99.90;;;;;;5042755;28;20470;-61
2022/04/01 03:40:16;;;;;;;9.40;8.50;;;0.80;99.90;;;;;;5042803;28;20495;-61
2022/04/01 03:42:48;;;;;;;10.57;9.53;;;0.80;99.90;;;;;;5041014;28;20843;-60
2022/04/01 03:45:17;;;;;;;9.67;8.60;;;0.80;99.90;;;;;;5021415;28;20522;-60
2022/04/01 03:47:53;;;;;;;8.97;8.10;;;0.70;99.90;;;;;;5025291;28;20470;-60
2022/04/01 03:50:31;;;;;;;10.87;7.90;;;0.80;99.90;;;;;;5041192;28;20454;-60
2022/04/01 03:53:06;;;;;;;11.20;9.00;;;0.80;99.90;;;;;;5026471;28;20456;-60
2022/04/01 03:55:42;;;;;;;11.53;7.90;;;0.80;99.90;;;;;;5020624;28;20521;-60
2022/04/01 03:58:14;;;;;;;10.23;8.53;;;0.80;99.90;;;;;;5024546;28;20466;-60
2022/04/01 04:00:42;;;;;;;7.70;7.00;;;0.70;99.90;;;;;;5040971;28;20491;-60
2022/04/01 04:03:11;;;;;;;9.07;8.00;;;0.70;99.90;;;;;;5030474;28;20435;-60
2022/04/01 04:05:40;;;;;;;9.20;8.30;;;0.70;99.90;;;;;;5020663;28;20675;-60
2022/04/01 04:08:11;;;;;;;8.87;8.07;;;0.80;99.90;;;;;;5020062;28;20472;-61
2022/04/01 04:10:42;;;;;;;9.70;8.70;;;0.80;99.90;;;;;;5020622;28;20466;-61
2022/04/01 04:13:16;;;;;;;9.40;8.40;;;0.70;88.70;;;;;;5044110;28;20511;-60
2022/04/01 04:15:52;;;;;;;9.80;7.80;;;0.80;71.10;;;;;;5019793;28;20909;-61
2022/04/01 04:18:30;;;;;;;10.47;7.73;;;0.70;89.90;;;;;;5035493;28;20464;-61
2022/04/01 04:21:13;;;;;;;11.13;8.03;;;0.70;1.00;;;;;;5037983;28;20532;-61
2022/04/01 04:23:46;;;;;;;8.93;8.03;;;0.60;1.00;;;;;;5033302;28;20472;-61
2022/04/01 04:26:16;;;;;;;7.90;7.10;;;0.70;1.00;;;;;;5027257;28;20488;-61
2022/04/01 04:28:50;;;;;;;8.67;7.77;;;0.70;1.00;;;;;;5039494;28;20522;-61
2022/04/01 04:31:27;;;;;;;8.87;7.97;;;0.70;1.00;;;;;;5021379;28;20831;-62
2022/04/01 04:34:03;;;;;;;8.90;7.63;;;0.70;1.00;;;;;;5024219;28;20461;-61
2022/04/01 04:36:39;;;;;;;8.60;7.80;;;0.60;1.00;;;;;;5029868;28;20513;-62
2022/04/01 04:39:15;;;;;;;7.63;6.93;;;0.70;13.60;;;;;;5021084;28;20520;-62
2022/04/01 04:41:46;;;;;;;8.73;7.93;;;0.60;1.00;;;;;;5020197;28;20597;-62
2022/04/01 04:44:19;;;;;;;9.00;7.63;;;0.70;1.00;;;;;;5036238;28;20912;-62
2022/04/01 04:46:49;;;;;;;8.73;7.93;;;0.70;1.00;;;;;;5034688;28;20467;-62
2022/04/01 04:49:19;;;;;;;8.97;7.67;;;0.60;99.90;;;;;;5040259;28;20528;-62
2022/04/01 04:52:08;;;;;;;8.53;7.63;;;0.70;99.90;;;;;;5028205;28;20509;-62
2022/04/01 04:54:42;;;;;;;8.87;7.97;;;0.70;93.20;;;;;;5037358;28;20868;-62
2022/04/01 04:57:09;;;;;;;8.53;7.63;;;0.60;1.00;;;;;;5038380;28;20467;-62
2022/04/01 04:59:42;;;;;;;9.43;8.53;;;0.60;99.90;;;;;;5039980;28;20521;-62
2022/04/01 05:02:18;;;;;;;9.50;8.60;;;0.70;1.00;;;;;;5025540;28;20461;-62
2022/04/01 05:05:02;;;;;;;11.63;7.77;;;0.60;99.90;;;;;;5022632;28;20486;-62
2022/04/01 05:07:49;;;;;;;8.63;7.83;;;0.60;99.90;;;;;;5025569;28;20464;-62
2022/04/01 05:10:22;;;;;;;8.90;8.10;;;0.70;99.90;;;;;;5030923;28;20472;-62
2022/04/01 05:12:59;;;;;;;8.30;7.50;;;0.60;99.90;;;;;;5028744;28;20765;-62
2022/04/01 05:15:34;;;;;;;7.73;7.03;;;0.60;99.90;;;;;;5028765;28;20771;-62
2022/04/01 05:18:12;;;;;;;8.13;7.33;;;0.60;39.30;;;;;;5030977;28;20454;-63
2022/04/01 05:20:58;;;;;;;9.23;7.87;;;0.50;1.00;;;;;;5029221;28;20466;-62
2022/04/01 05:23:35;;;;;;;8.97;8.07;;;0.60;99.90;;;;;;5031787;28;20530;-62
2022/04/01 05:26:12;;;;;;;9.50;8.10;;;0.60;99.90;;;;;;5029123;28;20576;-63
2022/04/01 05:28:48;;;;;;;8.87;8.00;;;0.70;99.90;;;;;;5028892;28;20463;-63
2022/04/01 05:31:22;;;;;;;8.20;7.37;;;0.60;84.50;;;;;;5028992;28;20524;-63
2022/04/01 05:33:58;;;;;;;8.67;7.40;;;0.60;1.00;;;;;;5025655;28;20462;-62
2022/04/01 05:36:38;;;;;;;;;;;;;;;;;;;;;
2022/04/01 05:39:12;;;;;;;8.63;7.70;;;0.60;1.00;;;;;;5017161;28;20457;-63
2022/04/01 05:41:45;;;;;;;8.60;7.70;;;0.60;99.90;;;;;;5036491;28;20530;-63
2022/04/01 05:44:16;;;;;;;6.40;5.80;;;0.50;99.90;;;;;;5039449;28;20464;-65
2022/04/01 05:46:43;;;;;;;8.10;7.30;;;0.60;99.90;;;;;;5038101;28;20468;-64
2022/04/01 05:49:14;;;;;;;8.30;7.47;;;0.60;1.00;;;;;;5038422;28;20478;-64
2022/04/01 05:51:43;;;;;;;8.77;7.97;;;0.60;99.90;;;;;;5038301;28;20467;-64
2022/04/01 05:54:10;;;;;;;8.00;7.30;;;0.70;99.90;;;;;;5038189;28;20821;-64
2022/04/01 05:56:39;;;;;;;9.00;8.10;;;0.70;99.90;;;;;;5037523;28;20465;-64
2022/04/01 05:59:06;;;;;;;8.53;7.10;;;0.60;99.90;;;;;;5037902;28;20463;-64
2022/04/01 06:01:42;;;;;;;8.67;7.77;;;0.60;99.90;;;;;;5037867;28;20944;-64
2022/04/01 06:04:36;;;;;;;7.93;7.13;;;0.60;99.90;;;;;;5037694;28;20463;-63
2022/04/01 06:07:13;;;;;;;6.90;6.30;;;0.60;99.90;;;;;;5032435;28;20759;-64
2022/04/01 06:09:53;;;;;;;7.93;7.13;;;0.60;99.90;;;;;;5018917;28;20586;-64
2022/04/01 06:12:28;;;;;;;8.40;6.73;;;0.60;1.00;;;;;;5017048;28;20463;-64
2022/04/01 06:15:10;;;;;;;7.67;6.97;;;0.60;84.50;;;;;;5016985;28;20472;-64
2022/04/01 06:17:52;;;;;;;8.33;6.50;;;0.60;99.90;;;;;;5017107;28;20464;-64
2022/04/01 06:20:22;;;;;;;7.20;6.60;;;0.70;99.90;;;;;;5034945;28;20495;-64
2022/04/01 06:22:58;;;;;;;6.83;6.23;;;0.70;22.60;;;;;;5033519;28;20467;-64
2022/04/01 06:25:31;;;;;;;7.67;6.97;;;0.70;1.00;;;;;;5026183;28;20469;-64
2022/04/01 06:28:10;;;;;;;7.20;6.50;;;0.70;1.00;;;;;;5036696;28;20470;-64
2022/04/01 06:30:39;;;;;;;8.23;7.43;;;0.70;1.00;;;;;;5023221;28;20459;-64
2022/04/01 06:33:21;;;;;;;8.40;7.60;;;0.70;1.00;;;;;;5026235;28;20751;-64
2022/04/01 06:35:57;;;;;;;7.97;7.17;;;0.80;1.00;;;;;;5027058;28;20851;-64
2022/04/01 06:38:36;;;;;;;7.47;6.77;;;0.70;1.00;;;;;;5015758;28;20468;-64
2022/04/01 06:41:07;;;;;;;7.27;6.47;;;0.70;1.00;;;;;;5032900;28;20501;-64
2022/04/01 06:43:37;;;;;;;8.13;7.17;;;0.70;1.00;;;;;;5036762;28;20443;-64
2022/04/01 06:46:14;;;;;;;7.43;6.73;;;0.70;1.00;;;;;;5028988;28;20475;-64
2022/04/01 06:48:44;;;;;;;6.97;6.27;;;0.70;1.00;;;;;;5016133;28;20468;-64
2022/04/01 06:51:14;;;;;;;6.63;6.03;;;0.60;1.00;;;;;;5030005;28;20467;-64
2022/04/01 06:53:43;;;;;;;6.50;5.83;;;0.70;1.00;;;;;;5018077;28;20567;-64
2022/04/01 06:56:12;;;;;;;5.70;4.90;;;0.60;99.90;;;;;;5017360;28;20462;-64
2022/04/01 06:58:45;;;;;;;9.00;6.70;;;0.60;99.90;;;;;;5030324;28;20471;-64
2022/04/01 07:01:14;;;;;;;7.00;6.30;;;0.60;99.90;;;;;;5036342;28;20487;-64
2022/04/01 07:03:44;;;;;;;6.00;5.50;;;0.70;1.00;;;;;;5031247;28;20464;-64
2022/04/01 07:06:11;;;;;;;7.03;6.20;;;0.70;99.90;;;;;;5015230;28;20519;-64
2022/04/01 07:08:47;;;;;;;6.63;6.00;;;0.70;99.90;;;;;;5024853;28;20495;-64
2022/04/01 07:11:19;;;;;;;8.33;6.43;;;0.70;99.90;;;;;;5036691;28;20465;-64
2022/04/01 07:13:46;;;;;;;6.93;6.23;;;0.80;99.90;;;;;;5034715;28;20479;-64
2022/04/01 07:16:14;;;;;;;6.23;5.73;;;0.80;99.90;;;;;;5016799;28;20469;-64
2022/04/01 07:18:41;;;;;;;7.60;6.90;;;0.80;99.90;;;;;;5022893;28;20472;-64
2022/04/01 07:21:11;;;;;;;6.07;5.50;;;0.80;99.90;;;;;;5028463;28;20499;-64
2022/04/01 07:23:38;;;;;;;6.30;5.70;;;0.70;99.90;;;;;;5016244;28;20461;-64
2022/04/01 07:26:07;;;;;;;5.87;5.30;;;0.70;99.90;;;;;;5015834;28;20468;-64
2022/04/01 07:28:43;;;;;;;8.97;6.00;;;0.70;99.90;;;;;;5018456;28;20466;-64
2022/04/01 07:34:09;;;;;;;7.80;6.03;;;0.80;99.90;;;;;;5028985;28;20440;-64
2022/04/01 07:36:38;;;;;;;6.67;5.97;;;0.70;99.90;;;;;;5033078;28;20470;-64
2022/04/01 07:39:06;;;;;;;6.27;5.70;;;0.70;99.90;;;;;;5033206;28;20465;-64
2022/04/01 07:41:41;;;;;;;6.50;5.90;;;0.70;99.90;;;;;;5026396;28;20493;-64
2022/04/01 07:44:16;;;;;;;7.10;6.30;;;0.60;99.90;;;;;;5036600;28;20445;-64
2022/04/01 07:46:44;;;;;;;6.40;5.80;;;0.60;1.00;;;;;;5020336;28;20920;-64
2022/04/01 07:49:12;;;;;;;6.10;5.60;;;0.50;99.90;;;;;;5026885;28;20460;-64
2022/04/01 07:51:44;;;;;;;7.27;6.57;;;0.50;1.00;;;;;;5026363;28;20559;-64
2022/04/01 07:54:13;;;;;;;6.60;5.93;;;0.60;1.00;;;;;;5020346;28;20490;-64
2022/04/01 07:56:40;;;;;;;7.07;6.37;;;0.50;99.90;;;;;;5018270;28;20762;-64
2022/04/01 07:59:15;;;;;;;7.07;6.37;;;0.60;1.00;;;;;;5018421;28;20839;-64
2022/04/01 08:01:46;;;;;;;7.50;6.10;;;0.60;1.00;;;;;;5035125;28;20533;-64
2022/04/01 08:04:15;;;;;;;7.67;5.67;;;0.70;1.00;;;;;;5026057;28;20522;-64
2022/04/01 08:06:48;;;;;;;5.70;5.20;;;0.60;99.90;;;;;;5025302;28;20905;-64
2022/04/01 08:09:15;;;;;;;6.10;5.50;;;0.60;99.90;;;;;;5020525;28;21014;-64
2022/04/01 08:11:46;;;;;;;6.13;5.53;;;0.70;99.90;;;;;;5024988;28;20531;-64
2022/04/01 08:14:17;;;;;;;8.07;5.60;;;0.70;99.90;;;;;;5019676;28;20942;-64
2022/04/01 08:16:44;;;;;;;6.63;5.93;;;0.60;99.90;;;;;;5019550;28;20465;-64
2022/04/01 08:19:11;;;;;;;6.27;5.37;;;0.70;99.90;;;;;;5021959;28;20893;-64
2022/04/01 08:21:38;;;;;;;6.97;6.30;;;0.50;99.90;;;;;;5028129;28;20955;-64
2022/04/01 08:24:11;;;;;;;6.47;5.87;;;0.50;99.90;;;;;;5039136;28;20899;-64
2022/04/01 08:26:44;;;;;;;6.80;6.10;;;0.50;99.90;;;;;;5028053;28;20463;-64
2022/04/01 08:29:16;;;;;;;6.40;5.80;;;0.60;99.90;;;;;;5020171;28;20472;-64
2022/04/01 08:31:48;;;;;;;8.10;6.70;;;0.60;99.90;;;;;;5023081;28;20459;-64
2022/04/01 08:34:17;;;;;;;6.60;5.73;;;0.70;18.40;;;;;;5020439;28;20523;-64
2022/04/01 08:36:53;;;;;;;5.50;5.00;;;0.60;1.00;;;;;;5034046;28;20517;-64
2022/04/01 08:39:21;;;;;;;6.67;5.80;;;0.60;1.00;;;;;;5021595;28;20465;-64
2022/04/01 08:41:48;;;;;;;6.17;5.33;;;0.60;1.00;;;;;;5019808;28;20579;-64
2022/04/01 08:44:17;;;;;;;7.33;6.50;;;0.60;1.00;;;;;;5029847;28;20464;-64
2022/04/01 08:46:47;;;;;;;6.87;6.20;;;0.60;1.00;;;;;;5018663;28;20553;-64
2022/04/01 08:49:17;;;;;;;5.87;5.27;;;0.70;1.00;;;;;;5019122;28;20888;-64
2022/04/01 08:51:44;;;;;;;9.00;5.57;;;0.60;1.00;;;;;;5020119;28;20899;-64
2022/04/01 08:54:11;;;;;;;6.17;5.57;;;0.60;1.00;;;;;;5022929;28;20452;-64
2022/04/01 08:56:38;;;;;;;5.93;5.30;;;0.60;1.00;;;;;;5037849;28;20470;-64
2022/04/01 08:59:08;;;;;;;5.70;4.87;;;0.60;1.00;;;;;;5028820;28;20465;-64
2022/04/01 09:01:42;;;;;;;10.23;7.70;;;0.60;1.00;;;;;;5018235;28;20799;-64
2022/04/01 09:04:26;;;;;;;7.50;6.70;;;0.70;1.00;;;;;;5032159;28;20908;-65
2022/04/01 09:06:56;;;;;;;5.90;5.40;;;0.70;1.00;;;;;;5038550;28;20843;-64
2022/04/01 09:09:30;;;;;;;6.70;6.00;;;0.70;1.00;;;;;;5031999;28;20980;-64
2022/04/01 09:12:12;;;;;;;6.03;5.43;;;0.70;1.00;;;;;;5018838;28;20461;-64
2022/04/01 09:14:41;;;;;;;6.60;5.40;;;0.60;99.90;;;;;;5031621;28;20507;-64
2022/04/01 09:17:13;;;;;;;6.20;5.20;;;0.60;99.90;;;;;;5035077;28;20898;-64
2022/04/01 09:19:48;;;;;;;5.90;5.30;;;0.60;99.90;;;;;;5018373;28;20470;-65
2022/04/01 09:22:17;;;;;;;5.83;4.97;;;0.70;99.90;;;;;;5018415;28;20795;-64
2022/04/01 09:24:59;;;;;;;7.70;6.90;;;0.70;99.90;;;;;;5026693;28;20537;-64
2022/04/01 09:27:43;;;;;;;9.27;6.37;;;0.60;99.90;;;;;;5037542;28;20473;-64
2022/04/01 09:30:13;;;;;;;6.87;5.50;;;0.60;99.90;;;;;;5033383;28;20873;-64
2022/04/01 09:32:45;;;;;;;6.27;5.00;;;0.60;99.90;;;;;;5018022;28;20777;-64
2022/04/01 09:35:20;;;;;;;6.27;5.67;;;0.80;99.90;;;;;;5025832;28;20463;-64
2022/04/01 09:37:51;;;;;;;6.50;5.30;;;0.90;99.90;;;;;;5037688;28;20846;-65
2022/04/01 09:40:23;;;;;;;6.20;5.60;;;0.80;99.90;;;;;;5027115;28;20476;-65
2022/04/01 09:42:58;;;;;;;7.17;5.17;;;0.80;99.90;;;;;;5018168;28;20591;-64
2022/04/01 09:45:27;;;;;;;5.93;5.30;;;0.90;99.90;;;;;;5018161;28;20549;-64
2022/04/01 09:48:04;;;;;;;6.60;5.50;;;1.00;99.90;;;;;;5018034;28;20519;-65
2022/04/01 09:50:36;;;;;;;6.23;5.30;;;1.00;99.90;;;;;;5016627;28;20470;-65
2022/04/01 09:53:14;;;;;;;5.80;5.20;;;1.10;99.90;;;;;;5023093;28;20454;-64
2022/04/01 09:55:45;;;;;;;6.73;6.00;;;1.10;99.90;;;;;;5017061;28;20461;-65
2022/04/01 09:58:25;;;;;;;7.17;6.47;;;1.10;99.90;;;;;;5017158;28;20463;-65
2022/04/01 10:00:56;;;;;;;6.83;5.60;;;1.20;99.90;;;;;;5016955;28;20564;-66
2022/04/01 10:03:26;;;;;;;6.43;5.60;;;1.20;99.90;;;;;;5016438;28;20457;-66
2022/04/01 10:05:56;;;;;;;6.37;5.77;;;1.40;99.90;;;;;;5038013;28;20462;-66
2022/04/01 10:08:30;;;;;;;7.10;5.70;;;1.40;99.90;;;;;;5036589;28;20480;-65
2022/04/01 10:11:01;;;;;;;7.33;5.53;;;1.20;99.90;;;;;;5022849;28;20467;-66
2022/04/01 10:13:37;;;;;;;5.60;5.10;;;1.20;99.90;;;;;;5016553;28;20466;-66
2022/04/01 10:16:10;;;;;;;7.40;6.23;;;1.10;99.90;;;;;;5018565;28;20461;-65
2022/04/01 10:18:40;;;;;;;5.87;5.37;;;1.30;99.90;;;;;;5017437;28;20879;-65
2022/04/01 10:21:13;;;;;;;5.70;5.17;;;1.30;99.90;;;;;;5024614;28;20434;-65
2022/04/01 10:23:48;;;;;;;5.53;4.93;;;1.40;99.90;;;;;;5024056;28;20503;-65
2022/04/01 10:26:23;;;;;;;5.67;4.53;;;1.30;75.00;;;;;;5036917;28;20810;-66
2022/04/01 10:28:52;;;;;;;7.10;5.40;;;1.30;92.10;;;;;;5036669;28;20468;-66
2022/04/01 10:31:24;;;;;;;5.20;4.70;;;1.20;44.70;;;;;;5017312;28;20757;-65
2022/04/01 10:33:53;;;;;;;5.60;5.00;;;1.10;84.70;;;;;;5017774;28;20545;-65
2022/04/01 10:36:33;;;;;;;5.73;5.10;;;1.20;99.90;;;;;;5031239;28;20521;-65
2022/04/01 10:39:05;;;;;;;4.90;4.40;;;1.20;90.40;;;;;;5036534;28;20476;-65
2022/04/01 10:41:36;;;;;;;5.30;4.80;;;1.20;99.90;;;;;;5019683;28;20931;-65
2022/04/01 10:44:12;;;;;;;8.03;7.27;;;1.20;99.90;;;;;;5029938;28;20467;-64
2022/04/01 10:46:59;;;;;;;12.83;11.63;;;1.30;99.90;;;;;;5036492;28;20461;-65
2022/04/01 10:52:23;;;;;;;7.00;5.00;;;1.30;99.90;;;;;;5024540;28;20500;-65
2022/04/01 10:54:53;;;;;;;5.77;4.70;;;1.30;99.90;;;;;;5031975;28;20764;-65
2022/04/01 10:57:35;;;;;;;5.00;4.00;;;1.30;99.90;;;;;;5021791;28;20473;-65
2022/04/01 11:00:13;;;;;;;5.80;5.20;;;1.30;99.90;;;;;;5035828;28;20538;-65
2022/04/01 11:02:40;;;;;;;6.20;5.60;;;1.20;99.90;;;;;;5024883;28;20551;-65
2022/04/01 11:05:25;;;;;;;6.33;5.73;;;1.20;99.90;;;;;;5030243;28;20470;-65
2022/04/01 11:08:20;;;;;;;4.60;4.20;;;1.30;99.90;;;;;;5028769;28;20445;-65
2022/04/01 11:11:06;;;;;;;5.63;5.00;;;1.00;93.20;;;;;;5034089;28;20774;-65
2022/04/01 11:13:40;;;;;;;6.07;5.47;;;1.00;99.90;;;;;;5017107;28;20517;-65
2022/04/01 11:16:25;;;;;;;5.60;5.10;;;1.00;99.90;;;;;;5024989;28;20459;-65
2022/04/01 11:19:15;;;;;;;6.07;5.33;;;1.10;99.90;;;;;;5019443;28;20458;-64
2022/04/01 11:21:53;;;;;;;6.63;4.57;;;1.20;99.90;;;;;;5016359;28;20856;-65
2022/04/01 11:24:33;;;;;;;7.50;5.53;;;1.20;99.90;;;;;;5018079;28;20539;-65
2022/04/01 11:27:21;;;;;;;5.97;5.10;;;0.90;99.90;;;;;;5033274;28;20453;-65
2022/04/01 11:30:07;;;;;;;6.10;5.57;;;1.10;99.90;;;;;;5039488;28;20944;-65
2022/04/01 11:32:35;;;;;;;9.53;5.03;;;1.00;99.90;;;;;;5029454;28;20784;-65
2022/04/01 11:35:07;;;;;;;6.40;5.40;;;1.00;99.90;;;;;;5020212;28;20556;-65
2022/04/01 11:37:37;;;;;;;6.03;5.43;;;1.00;99.90;;;;;;5032931;28;20517;-65
2022/04/01 11:40:12;;;;;;;6.33;5.73;;;1.00;99.90;;;;;;5040403;28;20934;-65
2022/04/01 11:42:51;;;;;;;6.73;6.03;;;1.00;99.90;;;;;;5033596;28;20495;-65
2022/04/01 11:45:18;;;;;;;6.50;5.80;;;1.00;99.90;;;;;;5020339;28;20467;-66
2022/04/01 11:47:49;;;;;;;6.70;6.00;;;1.00;99.90;;;;;;5031956;28;20473;-65
2022/04/01 11:50:22;;;;;;;7.07;6.37;;;1.00;99.90;;;;;;5039578;28;20761;-66
2022/04/01 11:52:53;;;;;;;15.70;6.60;;;1.10;99.90;;;;;;5030211;28;20549;-66
2022/04/01 11:55:23;;;;;;;6.47;5.87;;;1.10;99.90;;;;;;5035234;28;20506;-66
2022/04/01 11:57:55;;;;;;;6.67;5.97;;;1.10;99.90;;;;;;5036558;28;20748;-65
2022/04/01 12:00:30;;;;;;;9.03;5.80;;;1.20;99.90;;;;;;5039452;28;20521;-65
2022/04/01 12:03:00;;;;;;;6.63;6.03;;;1.20;99.90;;;;;;5033499;28;20586;-65
2022/04/01 12:05:34;;;;;;;8.50;6.40;;;1.30;99.90;;;;;;5036546;28;20477;-66
2022/04/01 12:11:13;;;;;;;7.80;6.83;;;1.20;1.00;;;;;;4970725;28;20450;-65
2022/04/01 12:13:50;;;;;;;6.93;6.23;;;1.10;1.00;;;;;;5019804;28;20499;-66
2022/04/01 12:16:18;;;;;;;6.70;6.00;;;1.00;1.00;;;;;;5018255;28;20559;-66
2022/04/01 12:18:50;;;;;;;6.03;5.43;;;1.10;99.90;;;;;;5018829;28;20502;-66
2022/04/01 12:21:18;;;;;;;7.03;5.97;;;1.10;1.00;;;;;;5018598;28;20464;-61
2022/04/01 12:23:48;;;;;;;6.40;5.80;;;1.20;1.00;;;;;;5019406;28;20580;-62
2022/04/01 12:29:21;;;;;;;9.13;6.80;;;1.20;42.00;;;;;;5022125;28;20452;-62
2022/04/01 12:32:05;;;;;;;8.23;6.40;;;1.20;53.80;;;;;;5036082;28;20458;-63
2022/04/01 12:34:42;;;;;;;9.10;6.57;;;1.10;1.00;;;;;;5028248;28;20476;-62
2022/04/01 12:37:14;;;;;;;8.37;6.40;;;0.90;1.00;;;;;;5024038;28;20446;-61
2022/04/01 12:39:46;;;;;;;7.57;6.30;;;1.00;99.90;;;;;;5022946;28;20476;-62
2022/04/01 12:42:19;;;;;;;7.90;5.60;;;1.20;99.90;;;;;;5019169;28;20592;-62
2022/04/01 12:44:57;;;;;;;7.93;6.93;;;1.30;1.00;;;;;;5018921;28;20457;-62
2022/04/01 12:47:32;;;;;;;7.07;6.37;;;1.20;1.00;;;;;;5019199;28;20462;-62
2022/04/01 12:50:01;;;;;;;6.73;6.10;;;1.20;1.00;;;;;;5019326;28;20436;-62
2022/04/01 12:52:36;;;;;;;8.00;6.77;;;1.20;99.90;;;;;;5022349;28;20518;-63
2022/04/01 12:55:05;;;;;;;7.40;5.80;;;1.00;51.80;;;;;;5026898;28;20930;-62
2022/04/01 12:57:36;;;;;;;7.63;6.43;;;0.90;99.90;;;;;;5022061;28;20968;-62
2022/04/01 13:00:31;;;;;;;6.90;6.20;;;1.00;99.90;;;;;;5023886;28;20462;-63
2022/04/01 13:03:08;;;;;;;9.03;5.90;;;1.10;1.00;;;;;;5018520;28;20796;-63
2022/04/01 13:05:37;;;;;;;10.17;6.13;;;1.00;99.90;;;;;;5031266;28;20477;-62
2022/04/01 13:08:16;;;;;;;8.73;6.40;;;1.00;99.90;;;;;;5020041;28;20479;-63
2022/04/01 13:10:45;;;;;;;7.50;6.50;;;1.00;99.90;;;;;;5018580;28;20465;-62
2022/04/01 13:13:21;;;;;;;11.83;9.23;;;1.00;99.90;;;;;;5020152;28;20458;-63
2022/04/01 13:15:52;;;;;;;8.23;6.90;;;1.10;1.00;;;;;;5028347;28;20476;-62
2022/04/01 13:18:29;;;;;;;6.67;6.07;;;1.20;99.90;;;;;;5033206;28;20559;-63
2022/04/01 13:20:59;;;;;;;8.30;7.10;;;1.10;99.90;;;;;;5037694;28;20469;-63
2022/04/01 13:23:28;;;;;;;7.10;6.40;;;1.10;1.00;;;;;;5018841;28;20544;-62
2022/04/01 13:25:59;;;;;;;7.80;6.83;;;0.90;99.90;;;;;;5018610;28;20903;-62
2022/04/01 13:28:32;;;;;;;7.50;6.80;;;0.90;1.00;;;;;;5018281;28;20468;-62
2022/04/01 13:31:07;;;;;;;8.33;6.30;;;1.00;97.60;;;;;;5027337;28;20905;-62
2022/04/01 13:33:39;;;;;;;8.07;7.30;;;1.00;1.00;;;;;;5020728;28;20455;-62
2022/04/01 13:36:07;;;;;;;7.83;7.03;;;1.10;99.90;;;;;;5033105;28;20460;-62
2022/04/01 13:38:41;;;;;;;10.00;8.70;;;1.10;99.90;;;;;;5027263;28;20507;-62
2022/04/01 13:41:11;;;;;;;7.60;6.87;;;1.10;1.00;;;;;;5029890;28;20573;-62
2022/04/01 13:43:40;;;;;;;10.03;8.00;;;0.90;1.00;;;;;;5036786;28;20517;-63